Crocker, Washington
Current Conditions -  °F | °C
As of 5:58 PM on Monday 20 Oct 2014 (Local Time) from KTCM Reporting Station
Clear Clear  
Wind Chill: 59°   Ceiling: Unl
Heat Index: 59°   Visibility: 10mi
Dew Point: 52°   Wind: 8mph
Humidity: 79%   Direction: 160°SSE
Pressure: 29.77"   Gusts: NA
Location:  46.993°N, 122.097°W
Report Text: KTCM 210058Z AUTO 16007KT 10SM CLR 15/11 A2977 RMK AO2 VIS 2 RWY34 SLP084 T01480112
Loading
Personal Weather Stations






























Interactive Weather Map
Tropical Storm Tracking
New forecast layout! Learn more

10-Day Weather Forecast

Advertisements
Track Severe Weather on mobile